Time;durP1;ratioP1;P1;durP2;ratioP2;P2;SDS_P1;SDS_P2;PMS_P1;PMS_P2;Temp;Humidity;BMP_temperature;BMP_pressure;BME280_temperature;BME280_humidity;BME280_pressure;Samples;Min_cycle;Max_cycle;Signal;HPM_P1;HPM_P2
2022/11/05 00:10:02;;;;;;;9.88;2.72;;;9.50;99.90;;;;;;4793489;29;20522;-72
2022/11/05 00:17:57;;;;;;;10.07;2.80;;;9.30;99.90;;;;;;4793501;29;20460;-72
2022/11/05 00:20:23;;;;;;;7.13;2.55;;;9.30;99.90;;;;;;4793648;30;20044;-72
2022/11/05 00:25:33;;;;;;;8.02;2.53;;;9.20;99.90;;;;;;4793401;29;20139;-73
2022/11/05 00:28:01;;;;;;;8.15;2.38;;;9.20;99.90;;;;;;4777155;30;20126;-72
2022/11/05 00:30:27;;;;;;;6.03;2.75;;;9.10;99.90;;;;;;4792894;29;20043;-72
2022/11/05 00:33:00;;;;;;;8.90;2.95;;;9.10;99.90;;;;;;4793318;29;20118;-72
2022/11/05 00:35:26;;;;;;;10.07;2.47;;;9.00;99.90;;;;;;4793294;29;20046;-71
2022/11/05 00:37:52;;;;;;;7.85;2.97;;;9.00;99.90;;;;;;4792130;30;20437;-72
2022/11/05 00:40:18;;;;;;;9.73;3.00;;;9.00;99.90;;;;;;4793084;29;20055;-71
2022/11/05 00:45:29;;;;;;;8.25;2.80;;;9.20;99.90;;;;;;4793347;29;20054;-72
2022/11/05 00:50:40;;;;;;;5.82;2.38;;;9.00;99.90;;;;;;4792918;29;20043;-72
2022/11/05 00:53:06;;;;;;;5.13;2.33;;;9.00;99.90;;;;;;4793006;30;20075;-72
2022/11/05 00:55:33;;;;;;;3.83;2.05;;;8.90;99.90;;;;;;4791726;30;20047;-72
2022/11/05 00:58:01;;;;;;;6.22;2.10;;;9.00;99.90;;;;;;4792844;30;20051;-72
2022/11/05 01:00:29;;;;;;;9.15;2.30;;;8.90;99.90;;;;;;4792540;30;20047;-72
2022/11/05 01:03:00;;;;;;;9.40;2.42;;;8.90;99.90;;;;;;4792471;29;20058;-70
2022/11/05 01:05:27;;;;;;;7.13;2.22;;;8.90;99.90;;;;;;4792786;29;20059;-71
2022/11/05 01:07:53;;;;;;;7.82;2.15;;;8.80;99.90;;;;;;4792450;29;20047;-71
2022/11/05 01:10:20;;;;;;;2.92;1.73;;;8.80;99.90;;;;;;4792578;29;20058;-72
2022/11/05 01:12:45;;;;;;;6.60;2.38;;;8.80;99.90;;;;;;4792790;29;20075;-72
2022/11/05 01:15:11;;;;;;;7.50;2.20;;;8.80;99.90;;;;;;4792542;30;20438;-71
2022/11/05 01:17:37;;;;;;;8.57;2.17;;;8.70;99.90;;;;;;4791866;29;20047;-71
2022/11/05 01:20:03;;;;;;;4.97;1.85;;;8.70;99.90;;;;;;4792409;30;20468;-72
2022/11/05 01:22:29;;;;;;;6.57;2.00;;;8.80;99.90;;;;;;4792801;29;20182;-71
2022/11/05 01:24:54;;;;;;;5.13;1.98;;;8.80;99.90;;;;;;4792141;29;20387;-72
2022/11/05 01:27:20;;;;;;;7.00;2.08;;;8.70;99.90;;;;;;4792402;30;20043;-71
2022/11/05 01:29:46;;;;;;;9.02;2.20;;;8.80;99.90;;;;;;4791871;29;20506;-71
2022/11/05 01:32:11;;;;;;;7.38;1.90;;;8.90;99.90;;;;;;4792211;30;20105;-72
2022/11/05 01:34:37;;;;;;;3.38;1.48;;;8.90;99.90;;;;;;4792423;30;20448;-71
2022/11/05 01:37:03;;;;;;;6.18;1.90;;;8.90;99.90;;;;;;4791243;30;20505;-72
2022/11/05 01:39:28;;;;;;;6.90;1.98;;;8.90;99.90;;;;;;4791941;29;20051;-72
2022/11/05 01:41:54;;;;;;;8.02;1.80;;;9.00;99.90;;;;;;4792136;29;20323;-72
2022/11/05 01:44:50;;;;;;;4.05;1.60;;;9.10;99.90;;;;;;4792045;30;20091;-72
2022/11/05 01:47:38;;;;;;;6.83;1.93;;;9.00;99.90;;;;;;4791879;30;20051;-71
2022/11/05 01:50:35;;;;;;;5.13;1.58;;;8.90;99.90;;;;;;4790987;30;20898;-72
2022/11/05 01:53:19;;;;;;;8.68;1.88;;;8.90;99.90;;;;;;4790300;30;20139;-71
2022/11/05 01:55:52;;;;;;;15.80;3.22;;;8.90;99.90;;;;;;4791829;29;20114;-71
2022/11/05 01:58:21;;;;;;;8.55;1.67;;;9.00;99.90;;;;;;4791869;29;20054;-71
2022/11/05 02:00:47;;;;;;;6.97;1.30;;;9.00;99.90;;;;;;4791676;29;20333;-72
2022/11/05 02:03:15;;;;;;;8.40;1.55;;;9.10;99.90;;;;;;4790746;30;20374;-72
2022/11/05 02:05:41;;;;;;;5.72;1.67;;;9.00;99.90;;;;;;4791764;29;20055;-72
2022/11/05 02:08:12;;;;;;;5.30;1.48;;;9.00;99.90;;;;;;4791683;29;20043;-72
2022/11/05 02:10:39;;;;;;;6.05;1.45;;;8.90;99.90;;;;;;4791538;29;20047;-72
2022/11/05 02:13:04;;;;;;;3.63;1.20;;;8.90;99.90;;;;;;4791801;29;20066;-72
2022/11/05 02:15:44;;;;;;;5.00;1.50;;;8.90;99.90;;;;;;4791564;30;20445;-72
2022/11/05 02:18:19;;;;;;;6.47;1.40;;;8.80;99.90;;;;;;4791795;29;20134;-72
2022/11/05 02:20:52;;;;;;;6.43;1.57;;;8.90;99.90;;;;;;4791587;29;20126;-72
2022/11/05 02:23:52;;;;;;;9.02;1.85;;;9.00;99.90;;;;;;4791638;30;20079;-72
2022/11/05 02:26:32;;;;;;;5.45;1.48;;;9.00;99.90;;;;;;4791310;29;20337;-72
2022/11/05 02:29:35;;;;;;;4.20;1.38;;;9.00;99.90;;;;;;4791363;29;20339;-71
2022/11/05 02:32:25;;;;;;;3.88;1.15;;;9.00;99.90;;;;;;4791600;30;20234;-71
2022/11/05 02:35:14;;;;;;;6.38;1.40;;;8.90;99.90;;;;;;4791296;29;20051;-71
2022/11/05 02:37:47;;;;;;;3.55;1.30;;;8.90;99.90;;;;;;4791138;30;20055;-72
2022/11/05 02:40:45;;;;;;;5.50;1.27;;;8.90;99.90;;;;;;4791548;29;20104;-72
2022/11/05 02:43:45;;;;;;;3.97;1.58;;;8.90;99.90;;;;;;4791318;29;20070;-71
2022/11/05 02:46:26;;;;;;;1.48;1.00;;;8.80;99.90;;;;;;4783044;29;20329;-71
2022/11/05 02:49:12;;;;;;;9.38;1.40;;;8.80;99.90;;;;;;4791353;30;20055;-72
2022/11/05 02:51:57;;;;;;;3.28;1.00;;;8.80;99.90;;;;;;4775502;30;20151;-72
2022/11/05 02:54:43;;;;;;;6.40;1.30;;;8.80;99.90;;;;;;4790998;29;20334;-75
2022/11/05 02:57:08;;;;;;;6.65;1.25;;;8.70;99.90;;;;;;4790227;30;20054;-72
2022/11/05 02:59:34;;;;;;;5.30;1.40;;;8.70;99.90;;;;;;4790795;29;20051;-72
2022/11/05 03:02:02;;;;;;;4.03;1.20;;;8.80;99.90;;;;;;4791319;30;20047;-72
2022/11/05 03:04:29;;;;;;;5.90;1.05;;;8.80;99.90;;;;;;4790899;29;20146;-71
2022/11/05 03:07:23;;;;;;;3.17;1.00;;;8.80;99.90;;;;;;4790875;29;20051;-72
2022/11/05 03:09:55;;;;;;;2.35;1.13;;;8.70;99.90;;;;;;4791080;30;20379;-72
2022/11/05 03:12:35;;;;;;;4.65;1.13;;;8.70;99.90;;;;;;4789979;30;20131;-72
2022/11/05 03:15:33;;;;;;;7.25;1.48;;;8.70;99.90;;;;;;4791035;30;20055;-71
2022/11/05 03:18:18;;;;;;;5.97;1.00;;;8.70;99.90;;;;;;4790985;29;20120;-72
2022/11/05 03:20:55;;;;;;;6.50;1.10;;;8.60;99.90;;;;;;4791090;30;20055;-72
2022/11/05 03:23:50;;;;;;;4.28;1.27;;;8.60;99.90;;;;;;4791114;30;20066;-71
2022/11/05 03:26:28;;;;;;;3.05;1.08;;;8.60;99.90;;;;;;4790975;29;20095;-71
2022/11/05 03:29:01;;;;;;;5.05;1.60;;;8.60;99.90;;;;;;4791067;30;20039;-71
2022/11/05 03:31:28;;;;;;;4.57;1.15;;;8.70;99.90;;;;;;4789734;30;20338;-71
2022/11/05 03:33:55;;;;;;;3.08;1.20;;;8.70;99.90;;;;;;4790718;30;20044;-71
2022/11/05 03:36:36;;;;;;;3.95;1.38;;;8.70;99.90;;;;;;4791005;29;20087;-72
2022/11/05 03:39:06;;;;;;;5.80;1.30;;;8.70;99.90;;;;;;4789964;29;20404;-72
2022/11/05 03:41:33;;;;;;;7.72;1.67;;;8.70;99.90;;;;;;4794164;29;20169;-71
2022/11/05 03:44:04;;;;;;;5.70;1.33;;;8.60;99.90;;;;;;4793918;29;20043;-72
2022/11/05 03:46:48;;;;;;;5.05;1.23;;;8.60;99.90;;;;;;4793747;29;20387;-72
2022/11/05 03:49:29;;;;;;;5.05;1.17;;;8.60;99.90;;;;;;4793979;30;20039;-72
2022/11/05 03:52:20;;;;;;;4.45;1.10;;;8.50;99.90;;;;;;4792603;30;20342;-71
2022/11/05 03:54:46;;;;;;;3.38;0.90;;;8.50;99.90;;;;;;4791290;30;20079;-71
2022/11/05 03:57:18;;;;;;;2.55;1.08;;;8.50;99.90;;;;;;4777771;30;20147;-72
2022/11/05 03:59:46;;;;;;;5.82;1.33;;;8.50;99.90;;;;;;4793676;30;20349;-71
2022/11/05 04:02:15;;;;;;;3.67;1.13;;;8.60;99.90;;;;;;4793948;30;20047;-72
2022/11/05 04:04:40;;;;;;;6.55;2.28;;;8.50;99.90;;;;;;4793511;29;20063;-71
2022/11/05 04:15:20;;;;;;;6.35;1.75;;;8.70;99.90;;;;;;4792837;30;20126;-71
2022/11/05 04:17:45;;;;;;;10.40;2.47;;;8.80;99.90;;;;;;4792725;30;20130;-72
2022/11/05 04:25:45;;;;;;;4.43;1.90;;;8.90;99.90;;;;;;4793656;29;20112;-72
2022/11/05 04:28:12;;;;;;;5.57;2.08;;;8.90;99.90;;;;;;4793143;29;20051;-72
2022/11/05 04:30:38;;;;;;;5.60;2.05;;;9.10;99.90;;;;;;4792954;29;20077;-71
2022/11/05 04:33:12;;;;;;;11.73;2.90;;;9.10;99.90;;;;;;4792369;30;20043;-71
2022/11/05 04:35:41;;;;;;;13.18;2.95;;;9.10;99.90;;;;;;4792325;30;20043;-72
2022/11/05 04:38:10;;;;;;;6.30;2.80;;;9.10;99.90;;;;;;4793417;29;20077;-72
2022/11/05 04:40:36;;;;;;;6.53;2.17;;;9.10;99.90;;;;;;4793257;30;20103;-72
2022/11/05 04:43:02;;;;;;;4.50;2.30;;;9.20;99.90;;;;;;4793314;29;20374;-72
2022/11/05 04:45:31;;;;;;;9.93;2.78;;;9.20;99.90;;;;;;4792994;29;20433;-72
2022/11/05 04:47:56;;;;;;;5.88;2.33;;;9.30;99.90;;;;;;4792074;30;20490;-71
2022/11/05 04:50:22;;;;;;;10.60;2.80;;;9.40;99.90;;;;;;4792864;29;20039;-73
2022/11/05 04:52:48;;;;;;;8.25;2.28;;;9.40;99.90;;;;;;4792962;29;20333;-72
2022/11/05 04:55:14;;;;;;;6.30;2.50;;;9.40;99.90;;;;;;4793106;29;20047;-72
2022/11/05 04:57:40;;;;;;;12.88;3.90;;;9.30;99.90;;;;;;4792906;29;20047;-72
2022/11/05 05:00:07;;;;;;;9.18;3.22;;;9.30;99.90;;;;;;4792678;30;20054;-71
2022/11/05 05:02:34;;;;;;;9.38;3.22;;;9.30;99.90;;;;;;4792590;29;20050;-71
2022/11/05 05:05:00;;;;;;;9.73;3.53;;;9.30;99.90;;;;;;4792721;29;20093;-72
2022/11/05 05:07:27;;;;;;;11.88;4.18;;;9.10;99.90;;;;;;4792632;29;20059;-72
2022/11/05 05:09:53;;;;;;;13.75;3.95;;;9.00;99.90;;;;;;4792599;30;20047;-72
2022/11/05 05:12:21;;;;;;;12.13;3.70;;;8.90;99.90;;;;;;4792416;30;20433;-72
2022/11/05 05:14:48;;;;;;;9.05;4.00;;;9.00;99.90;;;;;;4792455;29;20044;-72
2022/11/05 05:17:14;;;;;;;7.93;3.38;;;8.90;99.90;;;;;;4792686;29;20047;-72
2022/11/05 05:22:24;;;;;;;9.75;4.05;;;8.90;99.90;;;;;;4792592;29;20051;-72
2022/11/05 05:24:50;;;;;;;12.30;3.72;;;8.90;99.90;;;;;;4792159;30;20049;-72
2022/11/05 05:27:15;;;;;;;12.85;4.18;;;8.90;99.90;;;;;;4792470;29;20122;-71
2022/11/05 05:29:41;;;;;;;8.73;4.40;;;8.90;99.90;;;;;;4791944;29;20394;-72
2022/11/05 05:32:08;;;;;;;7.22;3.88;;;8.90;99.90;;;;;;4792340;29;20386;-72
2022/11/05 05:34:33;;;;;;;12.07;4.65;;;8.80;99.90;;;;;;4792411;30;20047;-71
2022/11/05 05:36:59;;;;;;;10.20;3.75;;;8.80;99.90;;;;;;4792035;29;20043;-73
2022/11/05 05:39:26;;;;;;;8.02;3.70;;;8.80;99.90;;;;;;4792276;30;20043;-72
2022/11/05 05:41:51;;;;;;;14.73;4.82;;;8.70;99.90;;;;;;4792214;30;20335;-71
2022/11/05 05:44:17;;;;;;;11.20;4.90;;;8.70;99.90;;;;;;4792176;30;20059;-71
2022/11/05 05:46:43;;;;;;;10.13;4.22;;;8.80;99.90;;;;;;4791920;29;20051;-72
2022/11/05 05:49:10;;;;;;;7.05;3.60;;;8.60;99.90;;;;;;4792254;30;20043;-71
2022/11/05 05:51:36;;;;;;;10.63;4.10;;;8.60;99.90;;;;;;4791764;29;20086;-72
2022/11/05 05:54:02;;;;;;;14.65;5.38;;;8.70;99.90;;;;;;4791723;29;20090;-72
2022/11/05 05:56:28;;;;;;;12.35;4.78;;;8.70;99.90;;;;;;4792038;30;20092;-71
2022/11/05 05:58:53;;;;;;;7.32;3.92;;;8.70;99.90;;;;;;4790940;30;20340;-71
2022/11/05 06:01:19;;;;;;;6.90;3.65;;;8.70;99.90;;;;;;4791577;29;20345;-72
2022/11/05 06:03:46;;;;;;;7.15;3.60;;;8.70;99.90;;;;;;4790198;30;20461;-71
2022/11/05 06:06:13;;;;;;;9.40;3.92;;;8.70;99.90;;;;;;4791814;30;20055;-72
2022/11/05 06:08:40;;;;;;;11.75;3.83;;;8.70;99.90;;;;;;4791502;30;20047;-71
2022/11/05 06:11:07;;;;;;;15.38;4.95;;;8.60;99.90;;;;;;4791671;29;20035;-72
2022/11/05 06:13:34;;;;;;;6.00;3.70;;;8.50;99.90;;;;;;4791793;29;20043;-72
2022/11/05 06:16:01;;;;;;;8.48;5.03;;;8.60;99.90;;;;;;4791421;29;20044;-72
2022/11/05 06:18:28;;;;;;;7.45;3.60;;;8.60;99.90;;;;;;4791562;30;20089;-72
2022/11/05 06:20:54;;;;;;;19.08;5.85;;;8.70;99.90;;;;;;4791472;30;20051;-72
2022/11/05 06:23:20;;;;;;;5.57;3.83;;;8.70;99.90;;;;;;4791658;30;20180;-72
2022/11/05 06:25:46;;;;;;;6.13;3.33;;;8.70;99.90;;;;;;4791447;29;20138;-71
2022/11/05 06:28:12;;;;;;;13.65;5.35;;;8.70;99.90;;;;;;4790662;30;20051;-71
2022/11/05 06:30:37;;;;;;;7.72;4.32;;;8.70;99.90;;;;;;4791064;29;20552;-71
2022/11/05 06:33:04;;;;;;;14.15;5.05;;;8.70;99.90;;;;;;4791449;29;20078;-71
2022/11/05 06:35:30;;;;;;;7.35;3.90;;;8.70;99.90;;;;;;4791145;29;20039;-71
2022/11/05 06:37:59;;;;;;;11.07;4.72;;;8.70;99.90;;;;;;4791516;29;20046;-71
2022/11/05 06:40:25;;;;;;;12.32;4.63;;;8.70;99.90;;;;;;4790212;30;20043;-71
2022/11/05 06:42:52;;;;;;;12.85;4.82;;;8.70;99.90;;;;;;4791341;29;20043;-71
2022/11/05 06:45:17;;;;;;;9.13;5.03;;;8.80;99.90;;;;;;4791461;29;20070;-71
2022/11/05 06:47:43;;;;;;;9.88;4.68;;;8.80;99.90;;;;;;4791133;29;20437;-71
2022/11/05 06:50:09;;;;;;;9.43;4.18;;;8.80;99.90;;;;;;4791369;29;20039;-72
2022/11/05 06:52:34;;;;;;;15.00;5.93;;;8.70;99.90;;;;;;4791334;30;20047;-71
2022/11/05 06:55:00;;;;;;;11.88;5.03;;;8.70;99.90;;;;;;4791386;30;20043;-72
2022/11/05 06:57:26;;;;;;;10.98;5.32;;;8.60;99.90;;;;;;4790954;30;20130;-71
2022/11/05 06:59:51;;;;;;;10.25;5.45;;;8.60;99.90;;;;;;4790849;30;20062;-72
2022/11/05 07:02:17;;;;;;;16.33;7.13;;;8.70;99.90;;;;;;4790972;30;20481;-71
2022/11/05 07:04:43;;;;;;;9.30;5.05;;;8.70;99.90;;;;;;4790980;29;20059;-71
2022/11/05 07:07:08;;;;;;;15.18;6.32;;;8.70;99.90;;;;;;4790918;29;20047;-71
2022/11/05 07:09:39;;;;;;;7.90;5.05;;;8.70;99.90;;;;;;4790209;30;20381;-72
2022/11/05 07:12:05;;;;;;;12.43;5.40;;;8.70;99.90;;;;;;4791295;29;20051;-71
2022/11/05 07:14:31;;;;;;;10.45;5.68;;;8.70;99.90;;;;;;4791121;29;20130;-72
2022/11/05 07:16:57;;;;;;;9.60;4.70;;;8.70;99.90;;;;;;4794562;30;20130;-72
2022/11/05 07:19:22;;;;;;;9.68;5.00;;;8.70;99.90;;;;;;4794311;30;20145;-72
2022/11/05 07:21:49;;;;;;;8.77;5.20;;;8.70;99.90;;;;;;4794651;29;20051;-71
2022/11/05 07:24:15;;;;;;;13.77;5.05;;;8.70;99.90;;;;;;4794330;29;20051;-72
2022/11/05 07:26:41;;;;;;;11.68;5.97;;;8.70;99.90;;;;;;4793410;30;20433;-71
2022/11/05 07:29:07;;;;;;;7.93;4.70;;;8.70;99.90;;;;;;4794304;30;20123;-71
2022/11/05 07:31:32;;;;;;;11.95;4.80;;;8.70;99.90;;;;;;4793814;30;20039;-72
2022/11/05 07:33:58;;;;;;;9.50;5.18;;;8.80;99.90;;;;;;4794418;30;20326;-72
2022/11/05 07:36:24;;;;;;;9.20;4.93;;;8.80;99.90;;;;;;4794096;29;20067;-72
2022/11/05 07:38:50;;;;;;;8.93;5.53;;;8.80;99.90;;;;;;4794409;29;20047;-72
2022/11/05 07:41:16;;;;;;;12.00;5.65;;;8.90;99.90;;;;;;4794149;29;20390;-72
2022/11/05 07:43:42;;;;;;;11.82;5.45;;;8.90;99.90;;;;;;4794138;30;20039;-71
2022/11/05 07:46:07;;;;;;;16.48;6.07;;;8.90;99.90;;;;;;4793887;30;20463;-71
2022/11/05 07:48:33;;;;;;;8.60;5.43;;;9.00;99.90;;;;;;4794023;29;20047;-75
2022/11/05 07:50:59;;;;;;;11.23;5.93;;;9.00;99.90;;;;;;4794086;29;20047;-71
2022/11/05 07:53:24;;;;;;;9.75;5.82;;;9.00;99.90;;;;;;4794026;29;20526;-71
2022/11/05 07:55:51;;;;;;;13.20;6.25;;;9.00;99.90;;;;;;4793180;30;20122;-71
2022/11/05 07:58:17;;;;;;;9.02;5.82;;;9.00;99.90;;;;;;4793830;30;20051;-71
2022/11/05 08:00:43;;;;;;;12.90;6.05;;;9.10;99.90;;;;;;4793567;30;20047;-72
2022/11/05 08:03:16;;;;;;;13.05;6.07;;;9.20;99.90;;;;;;4793349;29;20054;-73
2022/11/05 08:05:45;;;;;;;9.30;5.65;;;9.20;99.90;;;;;;4794604;29;20412;-71
2022/11/05 08:08:16;;;;;;;8.50;5.53;;;9.30;99.90;;;;;;4793576;29;20050;-71
2022/11/05 08:10:42;;;;;;;16.75;7.00;;;9.30;99.90;;;;;;4793543;30;20410;-71
2022/11/05 08:13:09;;;;;;;11.13;6.47;;;9.40;99.90;;;;;;4793513;29;20426;-71
2022/11/05 08:15:35;;;;;;;10.70;5.63;;;9.40;99.90;;;;;;4793604;29;20039;-72
2022/11/05 08:18:11;;;;;;;13.38;6.57;;;9.40;99.90;;;;;;4793484;30;20058;-71
2022/11/05 08:20:37;;;;;;;14.40;5.82;;;9.40;99.90;;;;;;4793518;29;20051;-71
2022/11/05 08:23:03;;;;;;;11.40;5.40;;;9.50;99.90;;;;;;4792440;30;20067;-71
2022/11/05 08:25:29;;;;;;;7.07;4.97;;;9.50;99.90;;;;;;4792193;29;20143;-71
2022/11/05 08:27:56;;;;;;;10.07;5.60;;;9.60;99.90;;;;;;4792407;30;20082;-71
2022/11/05 08:30:22;;;;;;;8.43;5.05;;;9.50;99.90;;;;;;4791863;30;20074;-71
2022/11/05 08:32:48;;;;;;;11.15;6.50;;;9.60;99.90;;;;;;4793433;29;20031;-68
2022/11/05 08:35:13;;;;;;;11.77;5.50;;;9.70;99.90;;;;;;4793191;29;20456;-69
2022/11/05 08:37:39;;;;;;;10.73;5.13;;;9.70;99.90;;;;;;4793195;30;20066;-71
2022/11/05 08:40:05;;;;;;;13.38;6.50;;;9.80;99.90;;;;;;4792286;30;20126;-68
2022/11/05 08:42:31;;;;;;;11.68;6.28;;;9.90;99.90;;;;;;4792070;30;20043;-70
2022/11/05 08:44:56;;;;;;;17.17;6.55;;;9.80;99.90;;;;;;4793274;30;20043;-70
2022/11/05 08:47:22;;;;;;;14.65;6.63;;;9.90;99.90;;;;;;4793098;30;20398;-70
2022/11/05 08:49:48;;;;;;;14.07;6.07;;;9.90;99.90;;;;;;4792904;29;20078;-70
2022/11/05 08:52:14;;;;;;;11.02;6.05;;;10.00;99.90;;;;;;4792837;30;20086;-71
2022/11/05 08:54:39;;;;;;;14.27;5.80;;;10.10;99.90;;;;;;4792771;30;20054;-71
2022/11/05 08:57:05;;;;;;;11.30;6.32;;;10.10;99.90;;;;;;4792063;30;20055;-70
2022/11/05 08:59:31;;;;;;;12.88;6.03;;;10.20;99.90;;;;;;4791713;30;20054;-70
2022/11/05 09:01:56;;;;;;;12.65;5.40;;;10.40;99.90;;;;;;4791539;30;20059;-71
2022/11/05 09:04:22;;;;;;;8.93;4.97;;;10.40;99.90;;;;;;4791356;30;20120;-70
2022/11/05 09:06:48;;;;;;;8.65;5.03;;;10.40;99.90;;;;;;4791869;30;20116;-71
2022/11/05 09:09:13;;;;;;;12.07;5.35;;;10.30;99.90;;;;;;4792545;30;20115;-70
2022/11/05 09:11:39;;;;;;;14.43;5.07;;;10.40;99.90;;;;;;4792476;29;20422;-70
2022/11/05 09:14:05;;;;;;;9.93;4.57;;;10.50;99.90;;;;;;4792625;29;20136;-70
2022/11/05 09:16:33;;;;;;;11.13;4.90;;;10.60;99.90;;;;;;4792488;29;20051;-71
2022/11/05 09:18:59;;;;;;;11.68;5.32;;;10.70;99.90;;;;;;4791756;30;20073;-69
2022/11/05 09:21:24;;;;;;;12.10;5.10;;;10.90;99.90;;;;;;4791295;30;20102;-69
2022/11/05 09:23:50;;;;;;;12.85;4.22;;;10.90;99.90;;;;;;4792399;30;20122;-70
2022/11/05 09:26:16;;;;;;;8.68;4.03;;;11.00;99.90;;;;;;4791423;30;20126;-70
2022/11/05 09:28:42;;;;;;;11.40;4.00;;;11.00;99.90;;;;;;4792334;29;20426;-71
2022/11/05 09:31:09;;;;;;;7.93;4.05;;;11.20;99.90;;;;;;4791190;30;20082;-70
2022/11/05 09:33:38;;;;;;;6.88;4.22;;;11.30;99.90;;;;;;4792333;30;20043;-70
2022/11/05 09:36:04;;;;;;;11.13;4.03;;;11.30;99.90;;;;;;4792394;30;20118;-70
2022/11/05 09:38:34;;;;;;;10.45;4.10;;;11.40;99.90;;;;;;4775681;30;20123;-70
2022/11/05 09:41:04;;;;;;;7.88;3.50;;;11.50;99.90;;;;;;4791409;30;20047;-70
2022/11/05 09:43:38;;;;;;;6.03;3.55;;;11.60;99.90;;;;;;4792265;30;20326;-71
2022/11/05 09:46:12;;;;;;;8.15;3.83;;;11.60;99.90;;;;;;4791949;30;20441;-71
2022/11/05 09:48:41;;;;;;;10.68;3.60;;;11.80;99.90;;;;;;4792137;29;20043;-71
2022/11/05 09:51:07;;;;;;;8.57;3.40;;;11.80;99.90;;;;;;4791034;30;20384;-70
2022/11/05 09:53:37;;;;;;;7.88;3.50;;;11.90;99.90;;;;;;4776259;30;20055;-71
2022/11/05 09:56:03;;;;;;;6.75;3.70;;;12.10;99.90;;;;;;4790790;30;20104;-71
2022/11/05 09:58:44;;;;;;;8.65;3.72;;;12.20;99.90;;;;;;4790786;30;20051;-70
2022/11/05 10:01:16;;;;;;;10.15;3.33;;;12.50;99.90;;;;;;4791485;30;20043;-70
2022/11/05 10:03:47;;;;;;;7.40;3.17;;;12.50;99.90;;;;;;4791689;30;20071;-71
2022/11/05 10:06:19;;;;;;;6.18;2.97;;;12.60;99.90;;;;;;4791653;29;20133;-69
2022/11/05 10:08:50;;;;;;;9.60;3.00;;;12.80;99.90;;;;;;4790828;30;20070;-69
2022/11/05 10:11:26;;;;;;;6.80;2.90;;;13.00;99.90;;;;;;4790630;30;20047;-68
2022/11/05 10:13:59;;;;;;;6.35;2.47;;;13.00;99.90;;;;;;4791613;29;20446;-68
2022/11/05 10:16:30;;;;;;;7.03;2.60;;;13.10;99.90;;;;;;4790687;30;20059;-68
2022/11/05 10:19:20;;;;;;;6.30;3.20;;;13.10;99.90;;;;;;4791731;30;20047;-69
2022/11/05 10:21:47;;;;;;;7.70;2.70;;;13.40;99.90;;;;;;4791473;29;20457;-69
2022/11/05 10:24:18;;;;;;;7.22;2.55;;;13.50;99.90;;;;;;4791650;30;20044;-69
2022/11/05 10:26:49;;;;;;;7.90;2.75;;;13.80;99.90;;;;;;4791319;29;20086;-69
2022/11/05 10:29:31;;;;;;;7.18;2.63;;;13.80;99.90;;;;;;4791542;29;20043;-69
2022/11/05 10:31:59;;;;;;;8.50;2.35;;;14.20;99.90;;;;;;4790342;30;20103;-69
2022/11/05 10:34:29;;;;;;;6.75;2.47;;;14.10;99.90;;;;;;4791222;29;20036;-69
2022/11/05 10:36:55;;;;;;;7.25;2.70;;;14.10;99.90;;;;;;4789589;29;20043;-70
2022/11/05 10:39:23;;;;;;;5.13;2.40;;;14.40;99.90;;;;;;4772165;30;20035;-72
2022/11/05 10:42:37;;;;;;;9.10;2.15;;;14.70;99.90;;;;;;4772150;30;20051;-69
2022/11/05 10:45:21;;;;;;;8.18;2.05;;;15.10;99.90;;;;;;4756063;30;20561;-69
2022/11/05 10:48:01;;;;;;;9.52;1.98;;;15.30;99.60;;;;;;4772156;30;20080;-69
2022/11/05 10:50:29;;;;;;;5.13;2.08;;;15.50;99.50;;;;;;4792837;29;20054;-69
2022/11/05 10:53:19;;;;;;;7.88;2.00;;;15.60;99.20;;;;;;4778270;30;20044;-69
2022/11/05 10:55:50;;;;;;;6.03;1.85;;;15.70;99.40;;;;;;4778969;30;20055;-69
2022/11/05 10:58:15;;;;;;;7.43;2.08;;;15.90;99.20;;;;;;4778113;30;20058;-69
2022/11/05 11:00:59;;;;;;;6.82;2.05;;;16.00;99.00;;;;;;4778817;30;20044;-68
2022/11/05 11:03:42;;;;;;;4.57;1.75;;;15.90;98.70;;;;;;4779021;30;20362;-67
2022/11/05 11:06:31;;;;;;;4.88;1.50;;;15.70;99.00;;;;;;4778989;30;20048;-68
2022/11/05 11:09:00;;;;;;;5.82;1.70;;;15.70;98.90;;;;;;4778886;30;20101;-68
2022/11/05 11:11:39;;;;;;;7.20;2.17;;;15.30;99.00;;;;;;4778021;30;20052;-68
2022/11/05 11:14:18;;;;;;;7.22;2.00;;;15.00;99.20;;;;;;4778976;30;20476;-67
2022/11/05 11:16:50;;;;;;;6.03;1.70;;;15.20;99.30;;;;;;4779283;30;20051;-67
2022/11/05 11:19:30;;;;;;;7.80;1.60;;;15.40;99.20;;;;;;4778799;30;20393;-67
2022/11/05 11:22:02;;;;;;;7.00;1.75;;;15.30;99.40;;;;;;4763093;30;20430;-69
2022/11/05 11:24:28;;;;;;;5.75;1.40;;;15.70;99.40;;;;;;4778970;30;20044;-68
2022/11/05 11:26:59;;;;;;;5.05;1.35;;;16.30;98.90;;;;;;4778833;30;20054;-69
2022/11/05 11:29:27;;;;;;;5.18;1.40;;;16.90;98.60;;;;;;4778937;30;20445;-69
2022/11/05 11:31:57;;;;;;;4.15;1.30;;;17.40;98.20;;;;;;4778360;30;20429;-69
2022/11/05 11:34:37;;;;;;;2.95;1.30;;;17.70;97.60;;;;;;4763620;30;20083;-70
2022/11/05 11:37:10;;;;;;;3.67;1.23;;;17.70;97.10;;;;;;4778944;30;20349;-69
2022/11/05 11:39:37;;;;;;;5.07;1.20;;;17.80;97.00;;;;;;4793132;30;20357;-69
2022/11/05 11:42:14;;;;;;;7.45;1.42;;;17.80;97.10;;;;;;4778808;30;20043;-69
2022/11/05 11:44:44;;;;;;;5.40;0.80;;;17.70;96.90;;;;;;4792667;30;20434;-69
2022/11/05 11:47:13;;;;;;;3.00;0.95;;;18.00;97.10;;;;;;4777881;30;20047;-69
2022/11/05 11:49:49;;;;;;;10.20;1.50;;;18.30;96.60;;;;;;4778761;30;20062;-69
2022/11/05 11:52:35;;;;;;;;;;;17.90;96.40;;;;;;4779444;30;20048;-69
2022/11/05 11:55:21;;;;;;;6.13;1.15;;;17.00;96.90;;;;;;4778623;30;20327;-69
2022/11/05 11:57:53;;;;;;;6.65;1.20;;;17.20;96.70;;;;;;4778749;30;20059;-68
2022/11/05 12:00:22;;;;;;;8.00;1.20;;;16.80;97.50;;;;;;4777261;30;20086;-68
2022/11/05 12:03:15;;;;;;;3.97;1.17;;;16.90;97.40;;;;;;4776079;30;20127;-69
2022/11/05 12:06:23;;;;;;;4.80;1.08;;;16.80;97.50;;;;;;4775161;30;20354;-72
2022/11/05 12:09:15;;;;;;;8.32;1.45;;;16.70;97.60;;;;;;4764929;30;20518;-69
2022/11/05 12:12:24;;;;;;;8.07;1.45;;;16.50;97.60;;;;;;4775787;30;20047;-70
2022/11/05 12:14:50;;;;;;;5.35;1.13;;;16.30;97.50;;;;;;4766663;30;20062;-73
2022/11/05 12:17:46;;;;;;;2.63;0.95;;;16.00;97.90;;;;;;4775866;30;20044;-68
2022/11/05 12:20:39;;;;;;;3.85;0.98;;;15.80;98.10;;;;;;4775626;30;20051;-68
2022/11/05 12:23:30;;;;;;;4.18;1.10;;;15.70;98.50;;;;;;4768052;30;20098;-68
2022/11/05 12:26:40;;;;;;;5.93;1.33;;;15.70;98.30;;;;;;4774472;30;20047;-68
2022/11/05 12:29:47;;;;;;;6.20;1.27;;;15.40;97.70;;;;;;4789652;29;20365;-68
2022/11/05 12:32:24;;;;;;;2.92;1.02;;;14.50;98.00;;;;;;4788744;30;20059;-69
2022/11/05 12:35:22;;;;;;;6.68;1.02;;;14.00;98.50;;;;;;4775981;30;20052;-68
2022/11/05 12:37:58;;;;;;;4.15;0.90;;;13.70;98.70;;;;;;4774361;30;20159;-68
2022/11/05 12:40:36;;;;;;;;;;;13.60;98.90;;;;;;4775935;30;20047;-69
2022/11/05 12:43:15;;;;;;;;;;;13.60;98.80;;;;;;4774613;30;20132;-68
2022/11/05 12:45:46;;;;;;;2.85;0.90;;;13.50;99.10;;;;;;4775491;30;19980;-68
2022/11/05 12:48:27;;;;;;;5.75;1.23;;;13.50;99.10;;;;;;4775320;30;20087;-68
2022/11/05 12:50:58;;;;;;;3.03;1.08;;;13.50;99.30;;;;;;4775087;30;20048;-69
2022/11/05 12:53:48;;;;;;;4.13;1.20;;;13.50;99.30;;;;;;4775350;30;20097;-69
2022/11/05 12:56:35;;;;;;;4.50;0.73;;;13.50;99.10;;;;;;4775007;30;20075;-68
2022/11/05 12:59:11;;;;;;;3.30;0.88;;;13.30;99.20;;;;;;4775036;30;20487;-68
2022/11/05 13:01:44;;;;;;;6.13;1.17;;;13.40;99.20;;;;;;4774441;30;20082;-68
2022/11/05 13:04:22;;;;;;;6.47;1.20;;;13.20;99.50;;;;;;4774747;30;20051;-68
2022/11/05 13:06:53;;;;;;;3.60;1.60;;;13.30;99.60;;;;;;4775014;30;20101;-68
2022/11/05 13:09:38;;;;;;;6.03;1.65;;;13.20;99.60;;;;;;4774814;30;20062;-69
2022/11/05 13:12:05;;;;;;;3.97;1.30;;;13.00;99.80;;;;;;4774272;30;20135;-69
2022/11/05 13:14:46;;;;;;;5.18;1.42;;;12.90;99.90;;;;;;4774354;30;20050;-69
2022/11/05 13:17:19;;;;;;;5.22;1.65;;;13.20;99.90;;;;;;4774811;30;20062;-68
2022/11/05 13:19:48;;;;;;;7.60;1.63;;;13.30;99.90;;;;;;4774711;30;20126;-68
2022/11/05 13:22:35;;;;;;;5.10;1.60;;;13.50;99.90;;;;;;4773603;30;20349;-69
2022/11/05 13:25:24;;;;;;;5.50;1.67;;;13.30;99.90;;;;;;4774764;30;20048;-68
2022/11/05 13:28:08;;;;;;;6.07;1.80;;;13.30;99.90;;;;;;4774530;30;20051;-68
2022/11/05 13:30:46;;;;;;;6.43;1.35;;;13.10;99.90;;;;;;4774011;30;20058;-68
2022/11/05 13:33:12;;;;;;;7.10;1.77;;;12.70;99.90;;;;;;4774574;30;20054;-68
2022/11/05 13:38:58;;;;;;;5.60;1.67;;;12.90;99.90;;;;;;4774418;30;20048;-68
2022/11/05 13:38:58;;;;;;;4.80;1.60;;;13.00;99.90;;;;;;4774260;30;20055;-68
2022/11/05 13:41:46;;;;;;;7.57;1.88;;;13.30;99.90;;;;;;4774358;30;20047;-68
2022/11/05 13:44:20;;;;;;;4.88;1.50;;;13.40;99.90;;;;;;4764094;30;20142;-69
2022/11/05 13:46:55;;;;;;;3.17;1.55;;;13.60;99.90;;;;;;4774047;30;20434;-69
2022/11/05 13:49:50;;;;;;;3.35;1.40;;;13.80;99.90;;;;;;4774060;30;20138;-69
2022/11/05 13:52:19;;;;;;;6.40;1.55;;;14.00;99.90;;;;;;4774165;30;20427;-68
2022/11/05 13:55:21;;;;;;;4.18;1.50;;;14.10;99.90;;;;;;4773925;30;20055;-68